Time;durP1;ratioP1;P1;durP2;ratioP2;P2;SDS_P1;SDS_P2;PMS_P1;PMS_P2;Temp;Humidity;BMP_temperature;BMP_pressure;BME280_temperature;BME280_humidity;BME280_pressure;Samples;Min_cycle;Max_cycle;Signal;HPM_P1;HPM_P2
2022/01/16 00:04:06;;;;;;;42.75;12.43;;;;;;;-2.69;100.00;96194.41;5100260;28;20043;-75
2022/01/16 00:06:37;;;;;;;39.50;11.65;;;;;;;-2.70;100.00;96157.53;5098149;28;20046;-75
2022/01/16 00:09:04;;;;;;;56.70;13.40;;;;;;;-2.81;100.00;96139.88;5105913;27;20043;-75
2022/01/16 00:11:29;;;;;;;42.83;12.77;;;;;;;-2.96;100.00;96156.06;5109303;28;20111;-75
2022/01/16 00:13:55;;;;;;;45.35;12.70;;;;;;;-2.83;100.00;96162.41;5108999;28;20049;-75
2022/01/16 00:16:21;;;;;;;43.55;13.00;;;;;;;-2.89;100.00;96147.66;5119554;28;20512;-75
2022/01/16 00:18:50;;;;;;;70.80;13.25;;;;;;;-2.99;100.00;96153.81;5098431;28;20096;-75
2022/01/16 00:21:21;;;;;;;42.22;13.25;;;;;;;-2.91;100.00;96144.44;5109109;28;20043;-75
2022/01/16 00:23:48;;;;;;;43.97;14.32;;;;;;;-2.59;100.00;96137.50;5088976;28;20701;-74
2022/01/16 00:26:14;;;;;;;47.47;13.38;;;;;;;-2.50;100.00;96128.72;5099851;28;20067;-75
2022/01/16 00:28:40;;;;;;;46.80;12.77;;;;;;;-2.48;100.00;96099.25;5093409;28;20051;-75
2022/01/16 00:31:05;;;;;;;45.95;12.20;;;;;;;-2.44;100.00;96099.72;5108668;28;20043;-75
2022/01/16 00:33:30;;;;;;;42.97;12.82;;;;;;;-2.57;100.00;96115.75;5095858;28;20051;-75
2022/01/16 00:35:56;;;;;;;41.60;12.45;;;;;;;-2.60;100.00;96147.03;5095196;28;20078;-75
2022/01/16 00:38:22;;;;;;;39.47;12.27;;;;;;;-2.47;100.00;96136.13;5093741;28;20055;-75
2022/01/16 00:40:47;;;;;;;39.97;12.85;;;;;;;-2.39;100.00;96132.69;5110732;28;20047;-75
2022/01/16 00:43:14;;;;;;;41.30;13.25;;;;;;;-2.66;100.00;96134.78;5112682;28;20036;-75
2022/01/16 00:45:40;;;;;;;45.83;12.35;;;;;;;-2.57;100.00;96138.13;5108580;28;20044;-75
2022/01/16 00:48:06;;;;;;;39.13;12.90;;;;;;;-2.43;100.00;96137.38;5102738;28;20074;-75
2022/01/16 00:50:33;;;;;;;42.90;13.10;;;;;;;-2.37;100.00;96104.97;5093912;28;20458;-75
2022/01/16 00:52:59;;;;;;;40.75;13.30;;;;;;;-2.41;100.00;96108.84;5102861;28;20039;-75
2022/01/16 00:55:25;;;;;;;37.13;13.02;;;;;;;-2.49;100.00;96112.31;5096957;28;20097;-75
2022/01/16 00:57:50;;;;;;;39.03;12.20;;;;;;;-2.36;100.00;96120.25;5093435;28;20071;-75
2022/01/16 01:00:16;;;;;;;38.47;13.40;;;;;;;-2.35;100.00;96113.34;5103729;28;20426;-75
2022/01/16 01:02:42;;;;;;;46.47;13.27;;;;;;;-2.38;100.00;96124.78;5096381;28;20040;-75
2022/01/16 01:05:08;;;;;;;38.17;13.48;;;;;;;-2.39;100.00;96130.91;5107860;28;20031;-75
2022/01/16 01:07:35;;;;;;;35.95;13.43;;;;;;;-2.42;100.00;96154.47;5106273;28;20092;-76
2022/01/16 01:10:01;;;;;;;40.67;12.38;;;;;;;-2.39;100.00;96159.25;5107501;28;20047;-76
2022/01/16 01:12:41;;;;;;;39.00;11.90;;;;;;;-2.41;100.00;96145.75;5103393;28;20036;-76
2022/01/16 01:15:09;;;;;;;43.97;11.85;;;;;;;-2.38;100.00;96157.50;5092039;28;20127;-75
2022/01/16 01:17:45;;;;;;;43.33;12.32;;;;;;;-2.46;100.00;96117.09;5093486;28;20621;-76
2022/01/16 01:20:15;;;;;;;49.83;12.25;;;;;;;-2.44;100.00;96073.94;5092188;28;20027;-75
2022/01/16 01:22:41;;;;;;;45.05;12.18;;;;;;;-2.52;100.00;96066.25;5093476;28;20032;-76
2022/01/16 01:25:08;;;;;;;47.05;12.77;;;;;;;-2.49;100.00;96066.69;5109401;28;20092;-76
2022/01/16 01:27:33;;;;;;;48.90;14.23;;;;;;;-2.52;100.00;96069.63;5112146;27;20052;-76
2022/01/16 01:30:05;;;;;;;42.22;13.02;;;;;;;-2.55;100.00;96056.31;5119920;27;20065;-76
2022/01/16 01:32:32;;;;;;;50.60;12.48;;;;;;;-2.62;100.00;96087.91;5093645;28;20067;-75
2022/01/16 01:34:57;;;;;;;39.72;12.52;;;;;;;-2.56;100.00;96106.22;5102677;28;20516;-76
2022/01/16 01:37:23;;;;;;;47.88;13.05;;;;;;;-2.51;100.00;96119.41;5082678;28;20035;-76
2022/01/16 01:39:48;;;;;;;46.58;12.98;;;;;;;-2.52;100.00;96133.25;5091773;28;20040;-76
2022/01/16 01:42:16;;;;;;;45.88;13.63;;;;;;;-2.49;100.00;96112.31;5107239;27;20538;-75
2022/01/16 01:53:05;;;;;;;46.25;11.13;;;;;;;-2.49;100.00;96099.41;5110417;28;20124;-75
2022/01/16 01:55:31;;;;;;;55.28;13.75;;;;;;;-2.47;100.00;96105.19;5099195;28;20048;-75
2022/01/16 01:57:56;;;;;;;39.50;12.23;;;;;;;-2.50;100.00;96115.84;5092906;28;20097;-75
2022/01/16 02:00:22;;;;;;;35.47;10.93;;;;;;;-2.59;100.00;96129.78;5109705;28;20040;-75
2022/01/16 02:05:36;;;;;;;51.47;13.20;;;;;;;-2.67;100.00;96141.72;5087850;28;20066;-76
2022/01/16 02:08:05;;;;;;;42.80;12.10;;;;;;;-2.66;100.00;96145.09;5100169;27;20040;-74
2022/01/16 02:10:31;;;;;;;47.53;13.90;;;;;;;-2.65;100.00;96150.09;5100010;28;20050;-75
2022/01/16 02:13:02;;;;;;;55.97;14.90;;;;;;;-2.68;100.00;96160.72;5098059;28;20044;-74
2022/01/16 02:29:42;;;;;;;44.20;13.25;;;;;;;-2.55;100.00;96111.22;5113499;27;20112;-74
2022/01/16 02:34:42;;;;;;;50.30;13.63;;;;;;;-2.55;100.00;96118.16;5107332;28;20062;-74
2022/01/16 02:37:11;;;;;;;46.70;13.13;;;;;;;-2.61;100.00;96119.63;5098623;28;20073;-74
2022/01/16 02:39:50;;;;;;;46.17;13.88;;;;;;;-2.57;100.00;96114.94;5108817;28;20039;-74
2022/01/16 02:42:18;;;;;;;49.42;14.10;;;;;;;-2.46;100.00;96106.78;5109306;27;20044;-74
2022/01/16 02:44:49;;;;;;;51.20;15.45;;;;;;;-2.48;100.00;96103.59;5109837;27;20070;-74
2022/01/16 02:47:18;;;;;;;63.60;14.10;;;;;;;-2.46;100.00;96106.78;5105034;28;20500;-74
2022/01/16 02:49:48;;;;;;;49.53;13.20;;;;;;;-2.59;100.00;96102.22;5118305;27;20048;-73
2022/01/16 02:52:15;;;;;;;48.60;14.55;;;;;;;-2.56;100.00;96090.78;5095789;28;20044;-74
2022/01/16 02:54:43;;;;;;;49.05;15.15;;;;;;;-2.55;100.00;96087.22;5102058;28;20133;-74
2022/01/16 02:57:11;;;;;;;46.40;14.15;;;;;;;-2.49;100.00;96086.53;5103909;28;20046;-74
2022/01/16 02:59:38;;;;;;;44.90;13.70;;;;;;;-2.52;100.00;96081.72;5108663;28;20050;-74
2022/01/16 03:02:07;;;;;;;53.33;14.60;;;;;;;-2.53;100.00;96085.25;5106790;27;20036;-74
2022/01/16 03:04:33;;;;;;;47.05;15.35;;;;;;;-2.51;100.00;96078.19;5099544;27;20044;-73
2022/01/16 03:07:01;;;;;;;44.85;13.75;;;;;;;-2.49;100.00;96079.59;5099451;28;20043;-74
2022/01/16 03:09:35;;;;;;;51.60;13.88;;;;;;;-2.50;100.00;96079.75;5106549;27;20044;-74
2022/01/16 03:12:01;;;;;;;43.95;14.55;;;;;;;-2.50;100.00;96069.44;5093652;28;20451;-73
2022/01/16 03:14:27;;;;;;;49.55;14.90;;;;;;;-2.52;100.00;96055.94;5090481;28;20032;-73
2022/01/16 03:16:53;;;;;;;50.38;14.27;;;;;;;-2.48;100.00;96067.53;5099173;28;20107;-74
2022/01/16 03:22:05;;;;;;;48.85;14.23;;;;;;;-2.49;100.00;96065.91;5107998;27;20067;-73
2022/01/16 03:24:43;;;;;;;54.10;15.50;;;;;;;-2.46;100.00;96066.38;5089540;28;20048;-74
2022/01/16 03:27:17;;;;;;;44.28;13.52;;;;;;;-2.46;100.00;96060.41;5113602;27;20148;-74
2022/01/16 03:29:45;;;;;;;54.08;14.93;;;;;;;-2.46;100.00;96066.38;5120703;27;20099;-73
2022/01/16 03:32:21;;;;;;;43.78;13.85;;;;;;;-2.47;100.00;96053.63;5113753;27;20106;-73
2022/01/16 03:34:47;;;;;;;50.33;15.68;;;;;;;-2.49;100.00;96050.44;5089546;28;20048;-73
2022/01/16 03:37:12;;;;;;;50.30;13.15;;;;;;;-2.52;100.00;96045.63;5099055;28;20065;-74
2022/01/16 03:39:38;;;;;;;53.83;15.60;;;;;;;-2.56;100.00;96046.97;5097146;28;20539;-74
2022/01/16 03:42:05;;;;;;;54.30;15.23;;;;;;;-2.67;100.00;96048.16;5090572;28;20755;-75
2022/01/16 03:44:30;;;;;;;49.30;14.35;;;;;;;-2.54;100.00;96032.09;5122381;27;20035;-74
2022/01/16 03:46:56;;;;;;;46.90;14.45;;;;;;;-2.50;100.00;96038.53;5109383;27;20039;-75
2022/01/16 03:49:26;;;;;;;47.72;13.63;;;;;;;-2.45;100.00;96046.53;5109075;28;20109;-75
2022/01/16 03:51:53;;;;;;;48.95;15.38;;;;;;;-2.44;100.00;96037.84;5108583;27;20042;-74
2022/01/16 03:54:21;;;;;;;45.28;13.25;;;;;;;-2.48;100.00;96036.59;5105905;27;20044;-74
2022/01/16 03:56:48;;;;;;;50.92;14.60;;;;;;;-2.50;100.00;96048.84;5092612;28;20031;-74
2022/01/16 03:59:14;;;;;;;51.08;15.77;;;;;;;-2.48;100.00;96031.44;5095682;28;20138;-74
2022/01/16 04:01:40;;;;;;;48.65;15.77;;;;;;;-2.48;100.00;96039.16;5097569;27;20043;-76
2022/01/16 04:04:06;;;;;;;45.38;13.77;;;;;;;-2.49;100.00;96040.13;5115414;27;20043;-76
2022/01/16 04:06:32;;;;;;;43.00;13.48;;;;;;;-2.49;100.00;96048.66;5089737;28;20036;-76
2022/01/16 04:08:59;;;;;;;43.55;14.05;;;;;;;-2.52;100.00;96061.09;5093570;28;20077;-76
2022/01/16 04:11:27;;;;;;;44.35;12.40;;;;;;;-2.54;100.00;96063.03;5109579;28;20043;-76
2022/01/16 04:14:03;;;;;;;53.63;13.30;;;;;;;-2.56;100.00;96054.69;5108674;28;20055;-77
2022/01/16 04:16:30;;;;;;;55.92;14.35;;;;;;;-2.77;100.00;96048.41;5112488;28;20418;-74
2022/01/16 04:18:55;;;;;;;47.45;13.75;;;;;;;-2.64;100.00;96058.94;5099028;28;20496;-74
2022/01/16 04:21:24;;;;;;;50.95;15.05;;;;;;;-2.59;100.00;96065.34;5090041;28;20051;-74
2022/01/16 04:23:50;;;;;;;57.17;15.52;;;;;;;-2.66;100.00;96071.19;5102284;28;20062;-76
2022/01/16 04:26:17;;;;;;;56.00;15.80;;;;;;;-2.68;100.00;96056.88;5100847;28;20558;-74
2022/01/16 04:28:43;;;;;;;43.97;12.45;;;;;;;-2.58;100.00;96066.97;5098014;28;20032;-74
2022/01/16 04:31:09;;;;;;;46.00;14.50;;;;;;;-2.57;100.00;96053.06;5094696;28;20161;-74
2022/01/16 04:33:35;;;;;;;48.35;13.95;;;;;;;-2.50;100.00;96059.97;5096530;28;20047;-74
2022/01/16 04:36:01;;;;;;;49.60;14.85;;;;;;;-2.61;100.00;96060.38;5108737;28;20188;-74
2022/01/16 04:38:27;;;;;;;45.72;14.07;;;;;;;-2.66;100.00;96060.91;5099023;28;20078;-74
2022/01/16 04:43:49;;;;;;;46.88;14.95;;;;;;;-2.52;100.00;96067.06;5088939;28;20051;-74
2022/01/16 04:46:16;;;;;;;48.25;15.93;;;;;;;-2.55;100.00;96061.44;5105809;28;20039;-74
2022/01/16 04:48:42;;;;;;;46.05;14.77;;;;;;;-2.53;100.00;96075.78;5103310;28;20039;-74
2022/01/16 04:51:08;;;;;;;45.78;14.30;;;;;;;-2.46;100.00;96060.41;5107133;28;20036;-74
2022/01/16 04:53:34;;;;;;;50.55;14.70;;;;;;;-2.33;100.00;96063.22;5088898;28;20040;-74
2022/01/16 04:55:59;;;;;;;53.70;15.65;;;;;;;-2.35;100.00;96069.50;5094029;28;20046;-74
2022/01/16 04:58:25;;;;;;;55.13;17.25;;;;;;;-2.45;100.00;96062.00;5096452;28;20486;-74
2022/01/16 05:00:50;;;;;;;46.15;14.63;;;;;;;-2.50;100.00;96062.53;5105392;28;20161;-74
2022/01/16 05:03:16;;;;;;;43.78;14.73;;;;;;;-2.46;100.00;96061.22;5100620;28;20476;-74
2022/01/16 05:05:42;;;;;;;43.35;15.13;;;;;;;-2.61;100.00;96071.47;5092615;28;20494;-74
2022/01/16 05:08:07;;;;;;;43.80;14.98;;;;;;;-2.69;100.00;96071.50;5097233;28;20412;-75
2022/01/16 05:10:33;;;;;;;39.50;14.35;;;;;;;-2.72;100.00;96071.88;5088799;28;20053;-75
2022/01/16 05:13:25;;;;;;;40.28;15.20;;;;;;;-2.76;100.00;96070.59;5097975;28;20554;-75
2022/01/16 05:18:28;;;;;;;38.28;13.40;;;;;;;-2.71;100.00;96083.78;5107684;28;20072;-74
2022/01/16 05:20:53;;;;;;;37.65;13.50;;;;;;;-2.72;100.00;96083.97;5103824;28;20529;-74
2022/01/16 05:23:19;;;;;;;42.88;13.98;;;;;;;-2.76;100.00;96080.91;5100065;28;20038;-74
2022/01/16 05:25:44;;;;;;;36.95;13.25;;;;;;;-2.71;100.00;96083.00;5099840;28;20088;-74
2022/01/16 05:28:10;;;;;;;40.85;14.27;;;;;;;-2.68;100.00;96078.28;5098066;28;20508;-74
2022/01/16 05:30:35;;;;;;;40.65;14.43;;;;;;;-2.64;100.00;96079.53;5111861;28;20629;-74
2022/01/16 05:33:01;;;;;;;43.13;15.75;;;;;;;-2.71;100.00;96083.78;5103179;28;20455;-74
2022/01/16 05:35:26;;;;;;;42.65;15.63;;;;;;;-2.64;100.00;96079.53;5093338;28;20044;-74
2022/01/16 05:37:52;;;;;;;41.85;14.55;;;;;;;-2.55;100.00;96076.91;5105757;28;20043;-74
2022/01/16 05:40:17;;;;;;;42.38;14.88;;;;;;;-2.69;100.00;96083.59;5095386;28;20408;-74
2022/01/16 05:42:43;;;;;;;45.70;15.40;;;;;;;-2.63;100.00;96075.19;5102993;28;20465;-74
2022/01/16 05:45:08;;;;;;;33.60;14.20;;;;;;;-2.54;100.00;96094.78;5108889;28;20071;-74
2022/01/16 05:47:34;;;;;;;37.78;14.13;;;;;;;-2.63;100.00;96091.47;5101681;27;20036;-74
2022/01/16 05:49:59;;;;;;;34.95;13.52;;;;;;;-2.52;100.00;96092.81;5091823;27;20048;-74
2022/01/16 05:52:25;;;;;;;34.92;13.60;;;;;;;-2.61;100.00;96094.66;5101397;28;20832;-74
2022/01/16 05:54:50;;;;;;;36.63;13.70;;;;;;;-2.64;100.00;96089.84;5111917;28;20466;-74
2022/01/16 05:57:16;;;;;;;40.95;14.93;;;;;;;-2.56;100.00;96101.88;5100919;27;20142;-74
2022/01/16 05:59:42;;;;;;;33.25;12.48;;;;;;;-2.66;100.00;96104.69;5089270;28;20047;-74
2022/01/16 06:02:08;;;;;;;41.35;15.68;;;;;;;-2.75;100.00;96117.78;5100765;27;20469;-74
2022/01/16 06:04:33;;;;;;;39.42;15.02;;;;;;;-2.70;100.00;96121.47;5108777;28;20048;-74
2022/01/16 06:06:59;;;;;;;44.60;14.90;;;;;;;-2.57;100.00;96120.06;5104427;27;20040;-74
2022/01/16 06:09:26;;;;;;;39.78;15.50;;;;;;;-2.60;100.00;96110.94;5099822;28;20050;-74
2022/01/16 06:11:53;;;;;;;38.72;15.25;;;;;;;-2.67;100.00;96120.31;5095025;28;20044;-74
2022/01/16 06:14:20;;;;;;;35.15;14.48;;;;;;;-2.69;100.00;96119.69;5103040;28;20699;-74
2022/01/16 06:16:45;;;;;;;44.22;15.80;;;;;;;-2.66;100.00;96125.31;5107598;28;20103;-74
2022/01/16 06:19:11;;;;;;;39.75;16.40;;;;;;;-2.77;100.00;96130.84;5078730;28;20414;-74
2022/01/16 06:21:37;;;;;;;41.92;15.40;;;;;;;-2.78;100.00;96129.22;5096131;27;20047;-74
2022/01/16 06:24:03;;;;;;;43.08;17.42;;;;;;;-2.76;100.00;96137.59;5106562;27;20036;-74
2022/01/16 06:26:29;;;;;;;40.83;15.93;;;;;;;-2.66;100.00;96133.03;5094184;28;20056;-74
2022/01/16 06:28:55;;;;;;;39.63;15.93;;;;;;;-2.62;100.00;96139.44;5099531;27;20393;-74
2022/01/16 06:31:20;;;;;;;41.92;17.00;;;;;;;-2.70;100.00;96142.06;5110700;27;20043;-74
2022/01/16 06:33:46;;;;;;;42.28;18.80;;;;;;;-2.81;100.00;96139.88;5110455;27;20036;-74
2022/01/16 06:36:11;;;;;;;44.20;17.63;;;;;;;-2.69;100.00;96138.50;5107462;28;20051;-73
2022/01/16 06:38:37;;;;;;;48.60;17.80;;;;;;;-2.87;100.00;96148.28;5077626;28;20120;-74
2022/01/16 06:41:03;;;;;;;40.95;17.13;;;;;;;-2.80;100.00;96131.19;5103128;27;20043;-74
2022/01/16 06:43:28;;;;;;;42.95;16.90;;;;;;;-2.90;100.00;96135.72;5099087;27;20044;-74
2022/01/16 06:45:54;;;;;;;41.65;17.45;;;;;;;-2.81;100.00;96139.88;5102514;28;20059;-74
2022/01/16 06:48:20;;;;;;;45.88;17.88;;;;;;;-2.85;100.00;96133.47;5106512;27;20404;-74
2022/01/16 06:50:46;;;;;;;43.65;17.30;;;;;;;-2.81;100.00;96142.47;5092869;28;20040;-74
2022/01/16 06:53:11;;;;;;;42.90;18.27;;;;;;;-2.88;100.00;96154.41;5104775;28;20118;-74
2022/01/16 06:55:37;;;;;;;47.03;17.90;;;;;;;-2.92;100.00;96155.72;5109628;28;20044;-74
2022/01/16 06:58:02;;;;;;;44.95;17.83;;;;;;;-2.89;100.00;96147.66;5109847;27;20047;-74
2022/01/16 07:00:28;;;;;;;44.58;17.50;;;;;;;-2.82;100.00;96153.72;5090088;28;20040;-74
2022/01/16 07:02:54;;;;;;;41.47;16.83;;;;;;;-2.54;100.00;96160.97;5103681;27;20448;-74
2022/01/16 07:05:19;;;;;;;39.38;16.55;;;;;;;-2.61;100.00;96159.09;5101461;28;20089;-74
2022/01/16 07:07:45;;;;;;;36.15;14.23;;;;;;;-2.58;100.00;96164.88;5095824;28;20039;-74
2022/01/16 07:10:10;;;;;;;37.75;16.20;;;;;;;-2.56;100.00;96165.50;5101220;27;20047;-74
2022/01/16 07:12:36;;;;;;;37.40;15.50;;;;;;;-2.59;100.00;96168.44;5101160;28;20573;-74
2022/01/16 07:15:02;;;;;;;37.80;15.25;;;;;;;-2.76;100.00;96168.50;5100922;27;20046;-74
2022/01/16 07:17:27;;;;;;;32.72;14.43;;;;;;;-2.76;100.00;96168.50;5101265;27;20071;-74
2022/01/16 07:19:53;;;;;;;37.53;15.98;;;;;;;-2.83;100.00;96165.00;5108626;28;20486;-74
2022/01/16 07:22:21;;;;;;;38.55;15.65;;;;;;;-2.76;100.00;96158.19;5085776;28;20070;-74
2022/01/16 07:24:48;;;;;;;38.60;15.18;;;;;;;-2.78;100.00;96165.31;5100406;27;20055;-74
2022/01/16 07:27:14;;;;;;;35.83;14.57;;;;;;;-2.78;100.00;96165.31;5102760;28;20039;-73
2022/01/16 07:29:39;;;;;;;36.35;15.55;;;;;;;-2.84;100.00;96166.00;5110066;28;20528;-74
2022/01/16 07:32:07;;;;;;;36.95;15.60;;;;;;;-2.86;100.00;96168.72;5100899;28;20048;-74
2022/01/16 07:34:32;;;;;;;40.38;14.85;;;;;;;-2.91;100.00;96170.19;5108549;28;20047;-75
2022/01/16 07:36:58;;;;;;;38.55;15.48;;;;;;;-2.86;100.00;96165.34;5097592;28;20760;-73
2022/01/16 07:39:23;;;;;;;36.25;14.82;;;;;;;-2.90;100.00;96171.78;5110049;28;20420;-73
2022/01/16 07:41:49;;;;;;;32.47;13.00;;;;;;;-2.93;100.00;96178.09;5104341;28;20061;-75
2022/01/16 07:44:14;;;;;;;36.70;14.07;;;;;;;-2.92;100.00;96173.75;5110572;28;20463;-73
2022/01/16 07:46:40;;;;;;;31.88;12.15;;;;;;;-2.98;100.00;96183.72;5103431;28;20036;-75
2022/01/16 07:49:06;;;;;;;37.67;13.82;;;;;;;-2.97;100.00;96187.91;5108609;28;20069;-74
2022/01/16 07:51:32;;;;;;;35.45;13.73;;;;;;;-2.98;100.00;96181.16;5109680;28;20036;-74
2022/01/16 07:53:58;;;;;;;34.08;14.35;;;;;;;-2.94;100.00;96185.97;5110198;28;20468;-75
2022/01/16 07:56:24;;;;;;;32.97;13.75;;;;;;;-2.93;100.00;96197.88;5101886;28;20115;-74
2022/01/16 07:58:50;;;;;;;33.53;13.93;;;;;;;-3.02;100.00;96205.63;5111340;28;20513;-78
2022/01/16 08:01:15;;;;;;;31.08;12.38;;;;;;;-2.93;100.00;96208.19;5082017;28;20523;-77
2022/01/16 08:03:41;;;;;;;34.45;13.95;;;;;;;-2.89;100.00;96205.09;5093514;28;20051;-77
2022/01/16 08:06:06;;;;;;;29.20;12.45;;;;;;;-2.90;100.00;96213.00;5101771;28;20044;-76
2022/01/16 08:08:32;;;;;;;31.63;13.32;;;;;;;-2.96;100.00;96210.13;5103467;28;20036;-77
2022/01/16 08:10:57;;;;;;;33.05;13.50;;;;;;;-2.93;100.00;96215.91;5098426;28;20048;-76
2022/01/16 08:13:23;;;;;;;34.53;13.32;;;;;;;-2.92;100.00;96205.44;5109156;28;20112;-74
2022/01/16 08:15:49;;;;;;;30.67;11.82;;;;;;;-2.93;100.00;96203.84;5102318;28;20085;-77
2022/01/16 08:18:14;;;;;;;30.90;13.13;;;;;;;-2.92;100.00;96205.44;5104167;28;20039;-76
2022/01/16 08:20:40;;;;;;;34.25;13.90;;;;;;;-2.98;100.00;96201.75;5095593;28;20050;-76
2022/01/16 08:23:05;;;;;;;29.77;11.30;;;;;;;-2.86;100.00;96193.66;5103889;28;20044;-76
2022/01/16 08:25:31;;;;;;;32.60;13.35;;;;;;;-2.75;100.00;96193.28;5100599;28;20051;-75
2022/01/16 08:27:57;;;;;;;33.60;13.38;;;;;;;-2.69;100.00;96200.34;5109886;28;20075;-76
2022/01/16 08:30:23;;;;;;;36.33;14.75;;;;;;;-2.67;100.00;96198.41;5107938;28;20043;-76
2022/01/16 08:32:48;;;;;;;35.17;14.93;;;;;;;-2.79;100.00;96204.91;5111729;28;20047;-77
2022/01/16 08:35:14;;;;;;;33.47;13.68;;;;;;;-2.85;100.00;96205.59;5108848;28;20118;-78
2022/01/16 08:37:40;;;;;;;37.75;14.70;;;;;;;-2.62;100.00;96203.84;5100810;28;20114;-78
2022/01/16 08:40:06;;;;;;;36.83;15.95;;;;;;;-2.45;100.00;96201.19;5105984;28;20044;-77
2022/01/16 08:42:32;;;;;;;34.95;15.02;;;;;;;-2.40;100.00;96188.59;5100586;28;20285;-76
2022/01/16 08:44:58;;;;;;;34.33;14.55;;;;;;;-2.32;100.00;96195.47;5110377;28;20070;-76
2022/01/16 08:47:26;;;;;;;34.40;15.02;;;;;;;-2.23;100.00;96181.56;5109316;28;20058;-79
2022/01/16 08:49:52;;;;;;;36.92;15.50;;;;;;;-2.25;100.00;96195.63;5111495;28;20047;-77
2022/01/16 08:52:19;;;;;;;35.55;14.63;;;;;;;-2.15;100.00;96193.59;5108990;28;20163;-75
2022/01/16 08:54:45;;;;;;;39.13;15.27;;;;;;;-2.13;100.00;96189.06;5111543;27;20091;-72
2022/01/16 08:57:10;;;;;;;33.83;14.73;;;;;;;-1.85;100.00;96186.75;5097116;28;20591;-74
2022/01/16 08:59:36;;;;;;;38.33;15.75;;;;;;;-1.69;100.00;96179.84;5114045;28;20047;-75
2022/01/16 09:02:01;;;;;;;34.55;14.57;;;;;;;-1.52;100.00;96175.31;5104352;28;20061;-76
2022/01/16 09:04:27;;;;;;;33.03;13.13;;;;;;;-1.44;98.83;96183.00;5108544;28;20154;-75
2022/01/16 09:06:52;;;;;;;34.97;13.50;;;;;;;-1.36;98.17;96185.50;5107849;28;20047;-75
2022/01/16 09:09:18;;;;;;;31.88;12.98;;;;;;;-1.14;97.03;96186.38;5101308;28;20047;-75
2022/01/16 09:11:43;;;;;;;31.33;12.75;;;;;;;-1.01;97.00;96188.34;5110897;27;20044;-75
2022/01/16 09:14:09;;;;;;;24.02;11.35;;;;;;;-0.90;94.08;96195.63;5117598;27;20042;-77
2022/01/16 09:16:34;;;;;;;27.60;11.95;;;;;;;-0.72;92.70;96197.03;5124833;27;20493;-75
2022/01/16 09:19:00;;;;;;;33.17;13.02;;;;;;;-0.63;91.38;96200.31;5104975;28;20086;-78
2022/01/16 09:21:26;;;;;;;31.77;12.40;;;;;;;-0.44;91.70;96204.13;5102292;28;20044;-76
2022/01/16 09:23:51;;;;;;;25.25;11.07;;;;;;;-0.44;89.75;96198.94;5094867;28;20036;-77
2022/01/16 09:26:17;;;;;;;21.88;8.50;;;;;;;-0.20;87.14;96190.84;5096362;28;20040;-77
2022/01/16 09:28:43;;;;;;;31.38;12.07;;;;;;;-0.28;88.08;96188.38;5101278;28;20040;-76
2022/01/16 09:31:09;;;;;;;22.42;10.00;;;;;;;-0.06;86.52;96190.94;5120967;27;20045;-76
2022/01/16 09:33:35;;;;;;;26.98;11.63;;;;;;;0.00;86.68;96190.22;5121492;27;20038;-76
2022/01/16 09:36:03;;;;;;;22.77;10.27;;;;;;;0.15;85.84;96195.31;5107502;27;20047;-77
2022/01/16 09:38:29;;;;;;;24.85;11.63;;;;;;;0.21;85.53;96191.19;5109525;27;20044;-77
2022/01/16 09:40:55;;;;;;;27.63;11.85;;;;;;;0.14;86.80;96191.94;5108068;28;20050;-77
2022/01/16 09:43:21;;;;;;;31.92;11.90;;;;;;;0.42;85.07;96188.56;5095379;28;20375;-76
2022/01/16 09:45:48;;;;;;;28.52;11.82;;;;;;;0.30;86.33;96195.25;5112965;27;20042;-78
2022/01/16 09:48:15;;;;;;;30.08;12.05;;;;;;;0.31;85.29;96199.44;5117939;27;20043;-82
2022/01/16 09:50:42;;;;;;;28.08;11.02;;;;;;;0.45;84.33;96193.38;5094767;28;20598;-81
2022/01/16 09:53:07;;;;;;;25.85;12.07;;;;;;;0.61;83.96;96202.63;5115622;28;20051;-82
2022/01/16 09:55:33;;;;;;;24.52;10.88;;;;;;;0.98;82.61;96207.66;5110021;27;20469;-79
2022/01/16 09:57:59;;;;;;;30.48;12.45;;;;;;;1.49;80.03;96199.47;5125977;27;20055;-79
2022/01/16 10:00:26;;;;;;;26.10;11.25;;;;;;;2.86;74.49;96194.00;5104034;28;20047;-79
2022/01/16 10:02:53;;;;;;;28.35;11.60;;;;;;;3.95;71.34;96191.53;5112226;28;20055;-80
2022/01/16 10:05:30;;;;;;;26.63;10.75;;;;;;;4.39;67.61;96198.66;5095841;28;20043;-79
2022/01/16 10:08:00;;;;;;;24.45;11.05;;;;;;;4.25;66.02;96190.94;5112241;27;20055;-77
2022/01/16 10:10:32;;;;;;;25.88;11.35;;;;;;;4.92;66.69;96190.34;5098366;28;20062;-78
2022/01/16 10:13:07;;;;;;;21.42;9.77;;;;;;;5.23;62.76;96186.00;5108207;28;20509;-78
2022/01/16 10:15:34;;;;;;;23.05;10.57;;;;;;;4.77;64.38;96190.69;5106043;28;20039;-77
2022/01/16 10:18:04;;;;;;;23.98;10.13;;;;;;;5.18;62.75;96189.25;5110966;27;20056;-78
2022/01/16 10:20:40;;;;;;;25.52;9.82;;;;;;;5.59;61.07;96194.00;5110001;27;20039;-78
2022/01/16 10:23:15;;;;;;;37.92;11.77;;;;;;;5.51;61.93;96193.28;5105953;28;20059;-75
2022/01/16 10:25:47;;;;;;;25.38;11.35;;;;;;;6.55;60.28;96181.78;5101009;28;20040;-75
2022/01/16 10:28:25;;;;;;;23.45;10.43;;;;;;;6.92;57.05;96185.97;5106740;28;20124;-75
2022/01/16 10:30:54;;;;;;;22.67;10.25;;;;;;;6.84;56.82;96178.47;5103179;28;20043;-76
2022/01/16 10:33:22;;;;;;;24.63;11.15;;;;;;;7.27;58.25;96172.06;5095664;28;20047;-79
2022/01/16 10:35:50;;;;;;;24.13;10.45;;;;;;;6.48;57.11;96175.06;5104890;28;20036;-80
2022/01/16 10:38:25;;;;;;;22.00;10.68;;;;;;;7.59;55.60;96169.78;5093604;28;20141;-80
2022/01/16 10:40:52;;;;;;;24.83;11.57;;;;;;;7.35;55.28;96169.06;5107018;28;20044;-79
2022/01/16 10:43:21;;;;;;;21.90;10.55;;;;;;;7.72;54.49;96173.94;5111576;28;20482;-77
2022/01/16 10:45:47;;;;;;;23.73;11.38;;;;;;;7.66;54.37;96174.06;5110729;28;20114;-80
2022/01/16 10:48:14;;;;;;;18.48;9.93;;;;;;;8.45;53.09;96176.75;5089362;28;20059;-80
2022/01/16 10:50:47;;;;;;;20.15;9.85;;;;;;;8.36;51.42;96167.69;5110840;28;20047;-80
2022/01/16 10:53:19;;;;;;;22.25;10.13;;;;;;;9.09;51.37;96165.03;5102552;28;20104;-78
2022/01/16 10:55:55;;;;;;;23.83;9.90;;;;;;;9.52;50.65;96173.19;5094620;27;20454;-79
2022/01/16 10:58:29;;;;;;;26.00;10.38;;;;;;;9.73;48.85;96176.81;5107746;27;20520;-78
2022/01/16 11:01:03;;;;;;;22.05;10.35;;;;;;;10.13;47.78;96173.00;5104846;27;20036;-75
2022/01/16 11:03:39;;;;;;;22.10;10.32;;;;;;;9.96;47.97;96172.31;5109840;28;20405;-75
2022/01/16 11:06:05;;;;;;;21.20;10.27;;;;;;;9.49;48.62;96174.47;5101432;28;20047;-75
2022/01/16 11:08:32;;;;;;;17.77;9.80;;;;;;;9.89;47.55;96183.81;5080928;28;20097;-75
2022/01/16 11:10:59;;;;;;;22.38;9.18;;;;;;;8.58;50.66;96172.25;5103234;28;20054;-74
2022/01/16 11:13:30;;;;;;;21.55;9.40;;;;;;;9.58;50.67;96181.91;5109503;28;20051;-76
2022/01/16 11:15:58;;;;;;;19.25;9.27;;;;;;;9.60;48.89;96171.97;5107115;28;20035;-76
2022/01/16 11:18:25;;;;;;;16.77;9.50;;;;;;;8.49;51.20;96172.63;5102685;28;20035;-76
2022/01/16 11:21:41;;;;;;;21.00;9.23;;;;;;;9.50;50.61;96181.31;5108943;28;20398;-75
2022/01/16 11:26:10;;;;;;;18.70;9.63;;;;;;;11.18;46.82;96176.91;5106495;28;20035;-78
2022/01/16 11:28:35;;;;;;;19.98;9.50;;;;;;;10.71;46.65;96173.19;5110773;28;20451;-75
2022/01/16 11:31:03;;;;;;;18.63;9.40;;;;;;;10.60;47.95;96186.56;5094068;28;20070;-75
2022/01/16 11:33:32;;;;;;;18.25;8.75;;;;;;;10.84;47.95;96186.97;5110666;28;20421;-75
2022/01/16 11:36:07;;;;;;;17.02;9.13;;;;;;;10.55;46.78;96189.94;5094714;28;20040;-76
2022/01/16 11:38:39;;;;;;;20.05;10.15;;;;;;;11.05;47.08;96187.91;5106915;28;20039;-74
2022/01/16 11:41:15;;;;;;;18.73;9.00;;;;;;;9.35;50.46;96186.38;5105822;28;20095;-76
2022/01/16 11:43:46;;;;;;;20.40;9.98;;;;;;;8.72;51.75;96180.56;5110354;28;20039;-74
2022/01/16 11:46:14;;;;;;;23.27;10.32;;;;;;;10.42;50.53;96185.91;5110155;28;20469;-74
2022/01/16 11:48:47;;;;;;;21.42;10.60;;;;;;;11.61;46.06;96185.50;5096195;28;20035;-76
2022/01/16 11:51:31;;;;;;;18.77;9.43;;;;;;;11.05;46.64;96182.63;5109698;28;20557;-79
2022/01/16 11:54:05;;;;;;;22.25;10.25;;;;;;;9.69;48.90;96188.88;5108988;27;20048;-77
2022/01/16 11:56:40;;;;;;;21.88;9.50;;;;;;;8.64;50.95;96187.00;5116416;27;20036;-76